DLH77X LEZL-EDDF
Flight info
| Callsign | DLH77X |
|---|---|
| Flight time | N/A |
| Altitude | 40000 |
| Route | HIJ M30 PARKA N858 SIE T430 LPA T429 TOPTU DCT TOU DCT GAI DCT MEN DCT NINUN DCT LATAM DCT ETREK DCT LTP DCT SOPLO DCT OMASI DCT KINNI DCT SOSAL DCT KORED DCT BERSU DCT DITON/N0478F390 DCT LADOL/N0478F400 T163 EMPAX EMPAX5B |
| Aircraft | A333/H-SDE3GHIJ2J3J5M1RVWXY/LB2D1 |
Departure
| Time | 2026-03-28 06:44 |
|---|---|
| Airport | Seville Airport (LEZL) |
Arrival
| Time | N/A |
|---|---|
| Airport | Frankfurt Main Airport (EDDF) |
| Time | Latitude | Longitude | Altitude | Speed | Heading |
|---|---|---|---|---|---|
| 2026-03-28 06:32 | 37.42205 | -5.89958 | 100 ft | 0 kts | 344° |
| 2026-03-28 06:37 | 37.42197 | -5.89955 | 99 ft | 3 kts | 344° |
| 2026-03-28 06:38 | 37.42179 | -5.89946 | 99 ft | 3 kts | 305° |
| 2026-03-28 06:38 | 37.42171 | -5.89922 | 97 ft | 3 kts | 258° |
| 2026-03-28 06:38 | 37.42179 | -5.89900 | 99 ft | 1 kts | 213° |
| 2026-03-28 06:40 | 37.42155 | -5.89918 | 100 ft | 10 kts | 212° |
| 2026-03-28 06:40 | 37.42078 | -5.89978 | 102 ft | 16 kts | 217° |
| 2026-03-28 06:41 | 37.42034 | -5.90069 | 100 ft | 9 kts | 223° |
| 2026-03-28 06:41 | 37.41986 | -5.90152 | 103 ft | 17 kts | 259° |
| 2026-03-28 06:41 | 37.41980 | -5.90354 | 100 ft | 26 kts | 269° |
| 2026-03-28 06:41 | 37.41979 | -5.90590 | 96 ft | 27 kts | 270° |
| 2026-03-28 06:42 | 37.41979 | -5.90813 | 93 ft | 25 kts | 270° |
| 2026-03-28 06:42 | 37.41978 | -5.90954 | 86 ft | 16 kts | 270° |
| 2026-03-28 06:42 | 37.41978 | -5.91099 | 86 ft | 17 kts | 270° |
| 2026-03-28 06:42 | 37.41971 | -5.91242 | 87 ft | 13 kts | 255° |
| 2026-03-28 06:43 | 37.41916 | -5.91308 | 86 ft | 7 kts | 180° |
| 2026-03-28 06:43 | 37.41871 | -5.91286 | 87 ft | 7 kts | 143° |
| 2026-03-28 06:43 | 37.41816 | -5.91198 | 90 ft | 16 kts | 124° |
| 2026-03-28 06:43 | 37.41789 | -5.91087 | 89 ft | 12 kts | 91° |
| 2026-03-28 06:44 | 37.41789 | -5.90824 | 93 ft | 59 kts | 90° |
| 2026-03-28 06:44 | 37.41792 | -5.90044 | 99 ft | 119 kts | 90° |
| 2026-03-28 06:44 | 37.41797 | -5.88763 | 121 ft | 171 kts | 89° |
| 2026-03-28 06:44 | 37.41788 | -5.87234 | 852 ft | 169 kts | 90° |
| 2026-03-28 06:45 | 37.41789 | -5.85795 | 1851 ft | 163 kts | 88° |
| 2026-03-28 06:45 | 37.41796 | -5.84294 | 2365 ft | 183 kts | 88° |
| 2026-03-28 06:45 | 37.41809 | -5.82540 | 2654 ft | 216 kts | 85° |
| 2026-03-28 06:45 | 37.42028 | -5.80546 | 3054 ft | 242 kts | 78° |
| 2026-03-28 06:46 | 37.42380 | -5.78414 | 3719 ft | 253 kts | 75° |
| 2026-03-28 06:46 | 37.43086 | -5.76411 | 4495 ft | 257 kts | 49° |
| 2026-03-28 06:46 | 37.44511 | -5.75063 | 5374 ft | 258 kts | 28° |
| 2026-03-28 06:46 | 37.46125 | -5.74073 | 6376 ft | 256 kts | 24° |
| 2026-03-28 06:47 | 37.47745 | -5.73137 | 7324 ft | 257 kts | 24° |
| 2026-03-28 06:47 | 37.49382 | -5.72183 | 8162 ft | 262 kts | 25° |
| 2026-03-28 06:47 | 37.51050 | -5.71197 | 9014 ft | 267 kts | 25° |
| 2026-03-28 06:47 | 37.52750 | -5.70181 | 9824 ft | 274 kts | 25° |
| 2026-03-28 06:48 | 37.54491 | -5.69133 | 10523 ft | 283 kts | 25° |
| 2026-03-28 06:48 | 37.56332 | -5.68022 | 10863 ft | 304 kts | 25° |
| 2026-03-28 06:48 | 37.58305 | -5.66828 | 11175 ft | 325 kts | 26° |
| 2026-03-28 06:48 | 37.60404 | -5.65557 | 11480 ft | 344 kts | 25° |
| 2026-03-28 06:49 | 37.62602 | -5.64225 | 11986 ft | 355 kts | 25° |
| 2026-03-28 06:49 | 37.64846 | -5.62863 | 12682 ft | 361 kts | 25° |
| 2026-03-28 06:49 | 37.67127 | -5.61478 | 13429 ft | 365 kts | 25° |
| 2026-03-28 06:49 | 37.69425 | -5.60081 | 14135 ft | 369 kts | 25° |
| 2026-03-28 06:50 | 37.71754 | -5.58665 | 14773 ft | 374 kts | 25° |
| 2026-03-28 06:50 | 37.74110 | -5.57231 | 15394 ft | 378 kts | 25° |
| 2026-03-28 06:50 | 37.76466 | -5.55796 | 16034 ft | 383 kts | 25° |
| 2026-03-28 06:50 | 37.78882 | -5.54324 | 16664 ft | 387 kts | 25° |
| 2026-03-28 06:51 | 37.81324 | -5.52834 | 17275 ft | 391 kts | 25° |
| 2026-03-28 06:51 | 37.83792 | -5.51327 | 17910 ft | 395 kts | 25° |
| 2026-03-28 06:51 | 37.86275 | -5.49810 | 18537 ft | 398 kts | 25° |
| 2026-03-28 06:51 | 37.88784 | -5.48277 | 19064 ft | 402 kts | 25° |
| 2026-03-28 06:52 | 37.91307 | -5.46734 | 19630 ft | 404 kts | 25° |
| 2026-03-28 06:52 | 37.93818 | -5.45196 | 20184 ft | 406 kts | 25° |
| 2026-03-28 06:52 | 37.96374 | -5.43630 | 20727 ft | 409 kts | 25° |
| 2026-03-28 06:52 | 37.98942 | -5.42054 | 21266 ft | 411 kts | 25° |
| 2026-03-28 06:53 | 38.01528 | -5.40467 | 21792 ft | 414 kts | 25° |
| 2026-03-28 06:53 | 38.04138 | -5.38865 | 22324 ft | 416 kts | 25° |
| 2026-03-28 06:53 | 38.06723 | -5.37276 | 22827 ft | 419 kts | 24° |
| 2026-03-28 06:53 | 38.09363 | -5.35652 | 23311 ft | 422 kts | 24° |
| 2026-03-28 06:54 | 38.12019 | -5.34016 | 23806 ft | 425 kts | 24° |
| 2026-03-28 06:54 | 38.14689 | -5.32371 | 24239 ft | 427 kts | 24° |
| 2026-03-28 06:54 | 38.17365 | -5.30721 | 24671 ft | 429 kts | 24° |
| 2026-03-28 06:55 | 38.21871 | -5.27940 | 25322 ft | 433 kts | 24° |
| 2026-03-28 06:55 | 38.25476 | -5.25711 | 25874 ft | 437 kts | 24° |
| 2026-03-28 06:55 | 38.27291 | -5.24588 | 26140 ft | 439 kts | 24° |
| 2026-03-28 06:55 | 38.30048 | -5.22881 | 26532 ft | 441 kts | 24° |
| 2026-03-28 06:56 | 38.32816 | -5.21166 | 26930 ft | 443 kts | 24° |
| 2026-03-28 06:56 | 38.35606 | -5.19437 | 27312 ft | 446 kts | 24° |
| 2026-03-28 06:56 | 38.38406 | -5.17698 | 27704 ft | 449 kts | 24° |
| 2026-03-28 06:56 | 38.41226 | -5.15947 | 28099 ft | 451 kts | 24° |
| 2026-03-28 06:57 | 38.44060 | -5.14184 | 28478 ft | 454 kts | 24° |
| 2026-03-28 06:57 | 38.46893 | -5.12507 | 28849 ft | 455 kts | 20° |
| 2026-03-28 06:57 | 38.49898 | -5.11223 | 29214 ft | 456 kts | 12° |
| 2026-03-28 06:57 | 38.53020 | -5.10554 | 29575 ft | 456 kts | 3° |
| 2026-03-28 06:58 | 38.56198 | -5.10481 | 29957 ft | 457 kts | 357° |
| 2026-03-28 06:58 | 38.59380 | -5.10669 | 30340 ft | 458 kts | 355° |
| 2026-03-28 06:58 | 38.62549 | -5.10983 | 30774 ft | 456 kts | 354° |
| 2026-03-28 06:58 | 38.65714 | -5.11347 | 31253 ft | 454 kts | 353° |
| 2026-03-28 06:59 | 38.68859 | -5.11718 | 31701 ft | 453 kts | 353° |
| 2026-03-28 06:59 | 38.71995 | -5.12079 | 32144 ft | 451 kts | 353° |
| 2026-03-28 06:59 | 38.75117 | -5.12425 | 32576 ft | 450 kts | 353° |
| 2026-03-28 06:59 | 38.78236 | -5.12758 | 33004 ft | 449 kts | 354° |
| 2026-03-28 07:00 | 38.81351 | -5.13082 | 33432 ft | 448 kts | 354° |
| 2026-03-28 07:00 | 38.84420 | -5.13396 | 33863 ft | 446 kts | 353° |
| 2026-03-28 07:00 | 38.87511 | -5.13711 | 34261 ft | 445 kts | 353° |
| 2026-03-28 07:00 | 38.90599 | -5.14026 | 34586 ft | 445 kts | 353° |
| 2026-03-28 07:01 | 38.93690 | -5.14281 | 34899 ft | 445 kts | 357° |
| 2026-03-28 07:01 | 38.96803 | -5.14124 | 35192 ft | 448 kts | 4° |
| 2026-03-28 07:01 | 38.99883 | -5.13427 | 35482 ft | 450 kts | 12° |
| 2026-03-28 07:01 | 39.02829 | -5.12166 | 35773 ft | 453 kts | 20° |
| 2026-03-28 07:02 | 39.05648 | -5.10323 | 36071 ft | 456 kts | 27° |
| 2026-03-28 07:02 | 39.08376 | -5.08224 | 36345 ft | 457 kts | 28° |
| 2026-03-28 07:02 | 39.11067 | -5.06026 | 36621 ft | 458 kts | 30° |
| 2026-03-28 07:02 | 39.13744 | -5.03779 | 36874 ft | 458 kts | 30° |
| 2026-03-28 07:03 | 39.16415 | -5.01520 | 37145 ft | 459 kts | 30° |
| 2026-03-28 07:03 | 39.19085 | -4.99265 | 37400 ft | 458 kts | 30° |
| 2026-03-28 07:03 | 39.21758 | -4.97019 | 37664 ft | 458 kts | 30° |
| 2026-03-28 07:03 | 39.24433 | -4.94782 | 37937 ft | 458 kts | 30° |
| 2026-03-28 07:04 | 39.27119 | -4.92543 | 38167 ft | 459 kts | 30° |
| 2026-03-28 07:04 | 39.29772 | -4.90334 | 38383 ft | 459 kts | 30° |
| 2026-03-28 07:04 | 39.32457 | -4.88099 | 38643 ft | 459 kts | 30° |
| 2026-03-28 07:04 | 39.35154 | -4.85853 | 38872 ft | 459 kts | 30° |
| 2026-03-28 07:05 | 39.37838 | -4.83614 | 39058 ft | 459 kts | 30° |
| 2026-03-28 07:05 | 39.40525 | -4.81371 | 39245 ft | 459 kts | 30° |
| 2026-03-28 07:05 | 39.43212 | -4.79124 | 39417 ft | 459 kts | 30° |
| 2026-03-28 07:05 | 39.45899 | -4.76876 | 39609 ft | 459 kts | 30° |
| 2026-03-28 07:06 | 39.48582 | -4.74629 | 39786 ft | 460 kts | 30° |
| 2026-03-28 07:06 | 39.51265 | -4.72379 | 39990 ft | 458 kts | 30° |
| 2026-03-28 07:06 | 39.53911 | -4.70158 | 40151 ft | 459 kts | 30° |
| 2026-03-28 07:07 | 39.59293 | -4.65636 | 40192 ft | 462 kts | 30° |
| 2026-03-28 07:07 | 39.64683 | -4.61098 | 40191 ft | 462 kts | 30° |
| 2026-03-28 07:08 | 39.70080 | -4.56545 | 40208 ft | 462 kts | 30° |
| 2026-03-28 07:08 | 39.75472 | -4.51988 | 40198 ft | 462 kts | 30° |
| 2026-03-28 07:09 | 39.80870 | -4.47417 | 40201 ft | 463 kts | 30° |
| 2026-03-28 07:09 | 39.86226 | -4.42873 | 40205 ft | 463 kts | 30° |
| 2026-03-28 07:10 | 39.91624 | -4.38285 | 40204 ft | 463 kts | 30° |
| 2026-03-28 07:10 | 39.97076 | -4.33841 | 40211 ft | 460 kts | 24° |
| 2026-03-28 07:11 | 40.02828 | -4.30143 | 40209 ft | 459 kts | 22° |
| 2026-03-28 07:11 | 40.08578 | -4.26625 | 40202 ft | 459 kts | 22° |
| 2026-03-28 07:12 | 40.14373 | -4.23111 | 40209 ft | 459 kts | 22° |
| 2026-03-28 07:12 | 40.20173 | -4.19577 | 40207 ft | 459 kts | 22° |
| 2026-03-28 07:13 | 40.25954 | -4.16036 | 40206 ft | 458 kts | 22° |
| 2026-03-28 07:13 | 40.31739 | -4.12483 | 40210 ft | 458 kts | 22° |
| 2026-03-28 07:14 | 40.37517 | -4.08927 | 40203 ft | 458 kts | 22° |
| 2026-03-28 07:14 | 40.43254 | -4.05389 | 40207 ft | 458 kts | 22° |
| 2026-03-28 07:15 | 40.49024 | -4.01826 | 40205 ft | 458 kts | 22° |
| 2026-03-28 07:15 | 40.54786 | -3.98260 | 40211 ft | 458 kts | 22° |
| 2026-03-28 07:16 | 40.60555 | -3.94683 | 40222 ft | 458 kts | 22° |
| 2026-03-28 07:16 | 40.66290 | -3.91120 | 40222 ft | 458 kts | 22° |
| 2026-03-28 07:17 | 40.72055 | -3.87532 | 40236 ft | 458 kts | 22° |
| 2026-03-28 07:17 | 40.77824 | -3.83935 | 40233 ft | 457 kts | 22° |
| 2026-03-28 07:18 | 40.83554 | -3.80354 | 40215 ft | 458 kts | 22° |
| 2026-03-28 07:18 | 40.89321 | -3.76745 | 40230 ft | 459 kts | 22° |
| 2026-03-28 07:19 | 40.95102 | -3.73120 | 40246 ft | 460 kts | 22° |
| 2026-03-28 07:19 | 41.00883 | -3.69487 | 40246 ft | 460 kts | 23° |
| 2026-03-28 07:20 | 41.06632 | -3.65865 | 40244 ft | 460 kts | 23° |
| 2026-03-28 07:20 | 41.12423 | -3.62213 | 40263 ft | 461 kts | 23° |
| 2026-03-28 07:21 | 41.17949 | -3.57793 | 40264 ft | 464 kts | 32° |
| 2026-03-28 07:21 | 41.23243 | -3.52856 | 40279 ft | 465 kts | 33° |
| 2026-03-28 07:22 | 41.28464 | -3.47841 | 40266 ft | 465 kts | 33° |
| 2026-03-28 07:22 | 41.33708 | -3.42790 | 40289 ft | 465 kts | 33° |
| 2026-03-28 07:23 | 41.38961 | -3.37740 | 40292 ft | 466 kts | 33° |
| 2026-03-28 07:23 | 41.44231 | -3.32673 | 40284 ft | 466 kts | 33° |
| 2026-03-28 07:24 | 41.49493 | -3.27607 | 40298 ft | 466 kts | 33° |
| 2026-03-28 07:24 | 41.54722 | -3.22561 | 40300 ft | 466 kts | 33° |
| 2026-03-28 07:25 | 41.59964 | -3.17491 | 40295 ft | 465 kts | 33° |
| 2026-03-28 07:25 | 41.65203 | -3.12414 | 40298 ft | 465 kts | 33° |
| 2026-03-28 07:26 | 41.70411 | -3.07357 | 40297 ft | 465 kts | 33° |
| 2026-03-28 07:26 | 41.75648 | -3.02261 | 40295 ft | 465 kts | 33° |
| 2026-03-28 07:27 | 41.80878 | -2.97161 | 40297 ft | 465 kts | 33° |
| 2026-03-28 07:27 | 41.86110 | -2.92049 | 40295 ft | 465 kts | 33° |
| 2026-03-28 07:28 | 41.91313 | -2.86954 | 40308 ft | 465 kts | 33° |
| 2026-03-28 07:28 | 41.96536 | -2.81830 | 40309 ft | 465 kts | 32° |
| 2026-03-28 07:29 | 42.01776 | -2.76678 | 40313 ft | 467 kts | 32° |
| 2026-03-28 07:29 | 42.06985 | -2.71544 | 40317 ft | 467 kts | 33° |
| 2026-03-28 07:30 | 42.12234 | -2.66365 | 40329 ft | 467 kts | 33° |
| 2026-03-28 07:30 | 42.17474 | -2.61181 | 40346 ft | 467 kts | 33° |
| 2026-03-28 07:31 | 42.22731 | -2.55969 | 40333 ft | 470 kts | 33° |
| 2026-03-28 07:31 | 42.28006 | -2.50726 | 40340 ft | 471 kts | 33° |
| 2026-03-28 07:32 | 42.33289 | -2.45464 | 40342 ft | 471 kts | 33° |
| 2026-03-28 07:32 | 42.38528 | -2.40234 | 40349 ft | 471 kts | 33° |
| 2026-03-28 07:33 | 42.43453 | -2.34338 | 40341 ft | 478 kts | 46° |
| 2026-03-28 07:33 | 42.45404 | -2.30683 | 40340 ft | 482 kts | 56° |
| 2026-03-28 07:33 | 42.46874 | -2.26580 | 40337 ft | 486 kts | 67° |
| 2026-03-28 07:33 | 42.47869 | -2.22189 | 40330 ft | 488 kts | 72° |
| 2026-03-28 07:34 | 42.49445 | -2.13200 | 40318 ft | 490 kts | 75° |
| 2026-03-28 07:34 | 42.50858 | -2.04208 | 40315 ft | 491 kts | 75° |
| 2026-03-28 07:35 | 42.52295 | -1.95164 | 40308 ft | 491 kts | 75° |
| 2026-03-28 07:35 | 42.53761 | -1.86125 | 40305 ft | 490 kts | 75° |
| 2026-03-28 07:36 | 42.55234 | -1.77088 | 40296 ft | 489 kts | 75° |
| 2026-03-28 07:36 | 42.56699 | -1.68064 | 40293 ft | 490 kts | 75° |
| 2026-03-28 07:37 | 42.58148 | -1.59081 | 40288 ft | 490 kts | 75° |
| 2026-03-28 07:37 | 42.59597 | -1.50040 | 40282 ft | 490 kts | 75° |
| 2026-03-28 07:38 | 42.61038 | -1.40999 | 40286 ft | 489 kts | 75° |
| 2026-03-28 07:38 | 42.62471 | -1.31958 | 40264 ft | 490 kts | 75° |
| 2026-03-28 07:39 | 42.63898 | -1.22900 | 40255 ft | 490 kts | 75° |
| 2026-03-28 07:39 | 42.65311 | -1.13883 | 40240 ft | 490 kts | 75° |
| 2026-03-28 07:40 | 42.66723 | -1.04826 | 40225 ft | 490 kts | 75° |
| 2026-03-28 07:40 | 42.68128 | -0.95770 | 40225 ft | 490 kts | 75° |
| 2026-03-28 07:41 | 42.69525 | -0.86713 | 40242 ft | 490 kts | 75° |
| 2026-03-28 07:41 | 42.70908 | -0.77695 | 40243 ft | 489 kts | 75° |
| 2026-03-28 07:42 | 42.72292 | -0.68622 | 40234 ft | 489 kts | 75° |
| 2026-03-28 07:42 | 42.73667 | -0.59557 | 40218 ft | 489 kts | 75° |
| 2026-03-28 07:43 | 42.75035 | -0.50485 | 40225 ft | 488 kts | 75° |
| 2026-03-28 07:43 | 42.76386 | -0.41481 | 40216 ft | 489 kts | 75° |
| 2026-03-28 07:44 | 42.77739 | -0.32405 | 40218 ft | 489 kts | 75° |
| 2026-03-28 07:44 | 42.78917 | -0.24873 | 40241 ft | 487 kts | 71° |
| 2026-03-28 07:45 | 42.81626 | -0.16540 | 40246 ft | 478 kts | 52° |
| 2026-03-28 07:45 | 42.85605 | -0.09317 | 40242 ft | 475 kts | 47° |
| 2026-03-28 07:46 | 42.89780 | -0.02403 | 40290 ft | 475 kts | 46° |
| 2026-03-28 07:46 | 42.94006 | 0.04536 | 40277 ft | 475 kts | 47° |
| 2026-03-28 07:47 | 42.98197 | 0.11498 | 40275 ft | 474 kts | 47° |
| 2026-03-28 07:47 | 43.02368 | 0.18486 | 40304 ft | 474 kts | 47° |
| 2026-03-28 07:48 | 43.06543 | 0.25507 | 40301 ft | 477 kts | 47° |
| 2026-03-28 07:48 | 43.10736 | 0.32575 | 40315 ft | 478 kts | 47° |